createdAt,value
2022-11-08T00:01:31.653Z,100621.03
2022-11-08T00:03:58.531Z,100623.56
2022-11-08T00:06:43.459Z,100624.47
2022-11-08T00:09:28.594Z,100627.19
2022-11-08T00:12:13.930Z,100628.91
2022-11-08T00:14:40.542Z,100633.94
2022-11-08T00:17:07.001Z,100623.28
2022-11-08T00:19:33.285Z,100616.81
2022-11-08T00:21:59.588Z,100611.81
2022-11-08T00:24:25.980Z,100611.81
2022-11-08T00:26:52.273Z,100612.47
2022-11-08T00:29:18.685Z,100612.06
2022-11-08T00:31:45.293Z,100609.97
2022-11-08T00:34:11.612Z,100606.00
2022-11-08T00:36:37.937Z,100609.34
2022-11-08T00:39:04.315Z,100606.63
2022-11-08T00:41:30.610Z,100602.88
2022-11-08T00:43:57.080Z,100603.72
2022-11-08T00:46:23.394Z,100607.88
2022-11-08T00:48:49.686Z,100612.28
2022-11-08T00:51:16.019Z,100611.03
2022-11-08T00:53:42.448Z,100614.56
2022-11-08T00:56:10.780Z,100611.03
2022-11-08T00:58:37.250Z,100614.38
2022-11-08T01:01:30.077Z,100601.66
2022-11-08T01:03:56.866Z,100595.16
2022-11-08T01:06:23.996Z,100605.81
2022-11-08T01:08:50.759Z,100603.31
2022-11-08T01:11:18.387Z,100602.91
2022-11-08T01:13:44.808Z,100602.09
2022-11-08T01:16:13.307Z,100592.69
2022-11-08T01:18:39.683Z,100599.13
2022-11-08T01:21:06.420Z,100588.06
2022-11-08T01:23:33.149Z,100589.75
2022-11-08T01:26:05.518Z,100581.41
2022-11-08T01:28:32.699Z,100590.56
2022-11-08T01:31:03.177Z,100582.22
2022-11-08T01:33:29.631Z,100586.63
2022-11-08T01:35:56.069Z,100573.88
2022-11-08T01:38:22.363Z,100575.56
2022-11-08T01:40:48.960Z,100571.81
2022-11-08T01:43:30.339Z,100577.66
2022-11-08T01:46:15.700Z,100577.66
2022-11-08T01:48:45.472Z,100588.91
2022-11-08T01:51:14.832Z,100579.91
2022-11-08T01:53:41.317Z,100581.81
2022-11-08T01:56:09.035Z,100585.56
2022-11-08T01:58:37.110Z,100571.38
2022-11-08T02:01:03.863Z,100568.00
2022-11-08T02:03:32.137Z,100560.91
2022-11-08T02:05:59.131Z,100552.53
2022-11-08T02:08:33.561Z,100534.13
2022-11-08T02:11:00.595Z,100567.16
2022-11-08T02:13:28.126Z,100570.91
2022-11-08T02:15:54.844Z,100570.91
2022-11-08T02:18:22.815Z,100570.88
2022-11-08T02:21:01.405Z,100563.13
2022-11-08T02:23:42.043Z,100570.00
2022-11-08T02:26:08.575Z,100568.75
2022-11-08T02:28:38.939Z,100552.25
2022-11-08T02:31:07.573Z,100558.72
2022-11-08T02:33:33.896Z,100553.03
2022-11-08T02:36:00.401Z,100545.34
2022-11-08T02:38:27.243Z,100547.81
2022-11-08T02:40:54.767Z,100544.47
2022-11-08T02:43:21.699Z,100552.19
2022-11-08T02:45:48.015Z,100532.75
2022-11-08T02:48:15.382Z,100530.03
2022-11-08T02:50:42.020Z,100526.91
2022-11-08T02:53:08.369Z,100529.81
2022-11-08T02:55:34.970Z,100518.53
2022-11-08T02:58:01.555Z,100508.06
2022-11-08T03:00:28.049Z,100504.31
2022-11-08T03:02:55.027Z,100505.09
2022-11-08T03:05:21.663Z,100492.56
2022-11-08T03:07:47.967Z,100490.91
2022-11-08T03:10:14.741Z,100500.50
2022-11-08T03:12:41.102Z,100489.66
2022-11-08T03:15:08.175Z,100487.97
2022-11-08T03:17:34.449Z,100485.66
2022-11-08T03:20:00.769Z,100474.19
2022-11-08T03:22:27.140Z,100465.41
2022-11-08T03:24:53.459Z,100463.75
2022-11-08T03:27:20.394Z,100444.13
2022-11-08T03:29:47.019Z,100446.63
2022-11-08T03:32:14.004Z,100427.00
2022-11-08T03:34:40.529Z,100432.03
2022-11-08T03:37:08.030Z,100432.63
2022-11-08T03:39:34.625Z,100442.00
2022-11-08T03:42:03.029Z,100442.41
2022-11-08T03:44:29.748Z,100435.09
2022-11-08T03:46:56.325Z,100434.88
2022-11-08T03:49:22.760Z,100438.59
2022-11-08T03:51:49.364Z,100431.50
2022-11-08T03:54:15.834Z,100431.91
2022-11-08T03:56:42.181Z,100418.16
2022-11-08T03:59:08.708Z,100436.94
2022-11-08T04:01:35.112Z,100422.78
2022-11-08T04:04:01.509Z,100428.19
2022-11-08T04:06:27.835Z,100431.91
2022-11-08T04:08:54.215Z,100435.03
2022-11-08T04:11:39.408Z,100423.31
2022-11-08T04:14:24.439Z,100415.19
2022-11-08T04:16:50.857Z,100422.91
2022-11-08T04:19:35.845Z,100422.44
2022-11-08T04:22:02.278Z,100420.53
2022-11-08T04:24:28.657Z,100431.75
2022-11-08T04:26:55.065Z,100428.44
2022-11-08T04:29:21.429Z,100423.41
2022-11-08T04:31:47.716Z,100413.81
2022-11-08T04:34:13.994Z,100407.56
2022-11-08T04:36:40.452Z,100402.53
2022-11-08T04:39:06.810Z,100409.00
2022-11-08T04:41:33.079Z,100399.84
2022-11-08T04:43:59.391Z,100405.41
2022-11-08T04:46:26.907Z,100405.03
2022-11-08T04:48:55.210Z,100397.72
2022-11-08T04:51:23.030Z,100398.56
2022-11-08T04:53:49.967Z,100394.41
2022-11-08T04:56:19.379Z,100384.38
2022-11-08T04:58:47.289Z,100377.09
2022-11-08T05:01:15.125Z,100374.13
2022-11-08T05:03:41.546Z,100382.88
2022-11-08T05:06:11.163Z,100370.56
2022-11-08T05:08:37.473Z,100358.28
2022-11-08T05:11:05.135Z,100355.34
2022-11-08T05:13:31.704Z,100348.41
2022-11-08T05:16:01.862Z,100342.34
2022-11-08T05:18:28.677Z,100333.22
2022-11-08T05:21:14.231Z,100345.72
2022-11-08T05:23:40.564Z,100341.97
2022-11-08T05:26:06.916Z,100340.94
2022-11-08T05:28:33.351Z,100341.97
2022-11-08T05:30:59.629Z,100322.78
2022-11-08T05:33:26.098Z,100317.59
2022-11-08T05:35:52.445Z,100329.22
2022-11-08T05:38:19.794Z,100332.34
2022-11-08T05:40:46.757Z,100322.34
2022-11-08T05:43:13.326Z,100325.25
2022-11-08T05:45:40.181Z,100335.25
2022-11-08T05:48:06.619Z,100326.28
2022-11-08T05:50:34.180Z,100321.28
2022-11-08T05:53:00.824Z,100305.88
2022-11-08T05:55:27.152Z,100291.72
2022-11-08T05:57:53.647Z,100297.69
2022-11-08T06:00:20.071Z,100292.47
2022-11-08T06:02:46.629Z,100283.94
2022-11-08T06:05:13.252Z,100268.28
2022-11-08T06:07:39.816Z,100278.91
2022-11-08T06:10:06.356Z,100285.97
2022-11-08T06:12:32.675Z,100283.47
2022-11-08T06:14:58.996Z,100277.22
2022-11-08T06:17:26.243Z,100275.13
2022-11-08T06:19:55.636Z,100288.84
2022-11-08T06:22:21.929Z,100277.59
2022-11-08T06:24:48.282Z,100279.06
2022-11-08T06:27:15.717Z,100281.75
2022-11-08T06:29:45.040Z,100275.13
2022-11-08T06:32:11.342Z,100278.84
2022-11-08T06:34:37.810Z,100282.16
2022-11-08T06:37:04.965Z,100290.06
2022-11-08T06:39:31.265Z,100302.56
2022-11-08T06:41:57.694Z,100297.16
2022-11-08T06:44:24.039Z,100303.38
2022-11-08T06:46:50.363Z,100297.97
2022-11-08T06:49:16.667Z,100304.22
2022-11-08T06:51:43.075Z,100294.47
2022-11-08T06:54:12.049Z,100299.66
2022-11-08T06:56:40.609Z,100304.44
2022-11-08T06:59:07.045Z,100305.09
2022-11-08T07:01:33.860Z,100311.09
2022-11-08T07:04:00.274Z,100298.44
2022-11-08T07:06:26.636Z,100297.59
2022-11-08T07:08:52.934Z,100300.94
2022-11-08T07:11:19.476Z,100298.84
2022-11-08T07:13:47.360Z,100301.16
2022-11-08T07:16:13.867Z,100293.31
2022-11-08T07:18:40.680Z,100304.78
2022-11-08T07:21:07.529Z,100297.38
2022-11-08T07:23:33.848Z,100298.66
2022-11-08T07:26:01.302Z,100297.00
2022-11-08T07:28:27.636Z,100297.84
2022-11-08T07:30:57.372Z,100299.94
2022-11-08T07:33:23.652Z,100300.34
2022-11-08T07:35:49.962Z,100303.06
2022-11-08T07:38:16.288Z,100302.03
2022-11-08T07:40:42.821Z,100306.38
2022-11-08T07:43:12.222Z,100335.09
2022-11-08T07:45:39.671Z,100324.53
2022-11-08T07:48:11.529Z,100323.09
2022-11-08T07:50:39.213Z,100320.25
2022-11-08T07:53:05.629Z,100318.81
2022-11-08T07:55:31.949Z,100307.59
2022-11-08T07:58:01.272Z,100305.94
2022-11-08T08:00:28.229Z,100299.47
2022-11-08T08:03:01.209Z,100291.59
2022-11-08T08:05:28.539Z,100305.16
2022-11-08T08:07:58.121Z,100290.59
2022-11-08T08:10:25.046Z,100295.22
2022-11-08T08:12:51.395Z,100290.66
2022-11-08T08:15:17.808Z,100300.44
2022-11-08T08:17:44.092Z,100296.91
2022-11-08T08:20:10.879Z,100297.16
2022-11-08T08:22:37.382Z,100309.03
2022-11-08T08:25:03.722Z,100301.97
2022-11-08T08:27:30.236Z,100290.31
2022-11-08T08:29:56.756Z,100298.03
2022-11-08T08:32:23.222Z,100292.00
2022-11-08T08:34:49.564Z,100286.97
2022-11-08T08:37:17.239Z,100288.88
2022-11-08T08:42:34.000Z,100297.88
2022-11-08T08:45:00.618Z,100291.59
2022-11-08T08:47:27.400Z,100286.19
2022-11-08T08:49:53.923Z,100294.94
2022-11-08T08:52:20.491Z,100299.53
2022-11-08T08:54:49.602Z,100294.75
2022-11-08T08:57:16.145Z,100296.63
2022-11-08T09:02:28.713Z,100293.25
2022-11-08T09:04:59.172Z,100302.44
2022-11-08T09:07:25.529Z,100287.59
2022-11-08T09:09:51.795Z,100289.47
2022-11-08T09:12:18.110Z,100288.00
2022-11-08T09:14:44.435Z,100294.91
2022-11-08T09:17:10.759Z,100262.78
2022-11-08T09:19:37.081Z,100288.41
2022-11-08T09:22:03.468Z,100290.28
2022-11-08T09:24:29.985Z,100308.22
2022-11-08T09:26:56.331Z,100299.84
2022-11-08T09:29:22.617Z,100297.56
2022-11-08T09:31:49.758Z,100313.66
2022-11-08T09:34:19.067Z,100305.06
2022-11-08T09:36:48.106Z,100309.44
2022-11-08T09:39:14.780Z,100296.50
2022-11-08T09:41:45.412Z,100291.47
2022-11-08T09:44:21.163Z,100294.81
2022-11-08T09:46:55.352Z,100285.19
2022-11-08T09:49:24.102Z,100286.84
2022-11-08T09:51:51.061Z,100282.69
2022-11-08T09:54:26.229Z,100278.06
2022-11-08T09:56:54.256Z,100282.88
2022-11-08T09:59:26.572Z,100281.78
2022-11-08T10:01:53.120Z,100299.34
2022-11-08T10:04:21.315Z,100287.25
2022-11-08T10:06:47.626Z,100293.91
2022-11-08T10:09:14.178Z,100280.09
2022-11-08T10:11:55.508Z,100288.69
2022-11-08T10:14:44.190Z,100290.34
2022-11-08T10:17:24.992Z,100288.09
2022-11-08T10:20:09.887Z,100279.94
2022-11-08T10:22:36.240Z,100287.63
2022-11-08T10:25:05.739Z,100271.31
2022-11-08T10:27:35.444Z,100269.03
2022-11-08T10:30:04.509Z,100252.53
2022-11-08T10:32:34.628Z,100256.72
2022-11-08T10:35:08.627Z,100250.22
2022-11-08T10:37:34.919Z,100255.84
2022-11-08T10:40:39.895Z,100245.59
2022-11-08T10:43:15.430Z,100246.22
2022-11-08T10:45:42.367Z,100250.78
2022-11-08T10:48:10.969Z,100246.16
2022-11-08T10:50:42.801Z,100242.56
2022-11-08T10:53:13.620Z,100243.59
2022-11-08T10:55:46.636Z,100235.44
2022-11-08T10:58:45.414Z,100234.16
2022-11-08T11:01:14.800Z,100228.47
2022-11-08T11:03:41.223Z,100184.88
2022-11-08T11:06:19.895Z,100219.66
2022-11-08T11:09:09.343Z,100211.94
2022-11-08T11:11:36.817Z,100205.22
2022-11-08T11:14:16.175Z,100213.78
2022-11-08T11:16:52.760Z,100206.66
2022-11-08T11:19:19.169Z,100206.06
2022-11-08T11:21:54.968Z,100201.50
2022-11-08T11:24:21.588Z,100196.66
2022-11-08T11:26:56.867Z,100203.78
2022-11-08T11:29:26.387Z,100202.28
2022-11-08T11:31:53.470Z,100196.41
2022-11-08T11:34:19.818Z,100196.56
2022-11-08T11:36:52.119Z,100179.81
2022-11-08T11:39:24.612Z,100189.19
2022-11-08T11:41:55.475Z,100186.19
2022-11-08T11:44:24.392Z,100175.88
2022-11-08T11:46:53.190Z,100173.38
2022-11-08T11:49:20.754Z,100185.91
2022-11-08T11:51:47.321Z,100185.47
2022-11-08T11:54:15.301Z,100177.91
2022-11-08T11:57:01.413Z,100178.59
2022-11-08T11:59:33.806Z,100182.91
2022-11-08T12:02:19.087Z,100174.00
2022-11-08T12:04:48.602Z,100180.66
2022-11-08T12:07:21.567Z,100178.56
2022-11-08T12:10:02.257Z,100182.72
2022-11-08T12:12:28.628Z,100186.06
2022-11-08T12:14:57.896Z,100184.78
2022-11-08T12:17:24.144Z,100175.34
2022-11-08T12:20:13.848Z,100170.13
2022-11-08T12:22:47.476Z,100168.00
2022-11-08T12:25:16.739Z,100167.56
2022-11-08T12:28:01.796Z,100164.22
2022-11-08T12:30:44.125Z,100163.78
2022-11-08T12:33:29.268Z,100159.97
2022-11-08T12:36:14.138Z,100156.13
2022-11-08T12:38:51.825Z,100160.75
2022-11-08T12:41:21.231Z,100156.97
2022-11-08T12:43:56.875Z,100155.25
2022-11-08T12:46:23.190Z,100158.63
2022-11-08T12:48:55.620Z,100190.84
2022-11-08T12:51:45.524Z,100204.69
2022-11-08T12:54:26.660Z,100217.91
2022-11-08T12:56:55.125Z,100218.53
2022-11-08T12:59:21.338Z,100212.44
2022-11-08T13:01:51.626Z,100206.25
2022-11-08T13:04:24.255Z,100201.44
2022-11-08T13:07:03.816Z,100201.44
2022-11-08T13:09:37.221Z,100202.94
2022-11-08T13:12:12.405Z,100187.19
2022-11-08T13:14:41.471Z,100175.88
2022-11-08T13:17:26.165Z,100168.31
2022-11-08T13:20:00.636Z,100159.94
2022-11-08T13:22:29.873Z,100147.75
2022-11-08T13:24:57.177Z,100132.63
2022-11-08T13:27:25.044Z,100125.44
2022-11-08T13:29:52.728Z,100124.50
2022-11-08T13:32:25.805Z,100126.56
2022-11-08T13:35:01.229Z,100137.00
2022-11-08T13:37:32.983Z,100142.22
2022-11-08T13:40:02.064Z,100148.00
2022-11-08T13:42:40.025Z,100136.66
2022-11-08T13:45:18.400Z,100149.81
2022-11-08T13:47:44.736Z,100154.81
2022-11-08T13:50:29.593Z,100159.34
2022-11-08T13:53:28.188Z,100152.75
2022-11-08T13:56:04.270Z,100159.91
2022-11-08T13:58:33.782Z,100145.44
2022-11-08T14:01:20.377Z,100155.88
2022-11-08T14:03:46.610Z,100154.00
2022-11-08T14:06:19.700Z,100154.34
2022-11-08T14:08:49.152Z,100147.84
2022-11-08T14:11:34.225Z,100141.34
2022-11-08T14:14:03.377Z,100149.41
2022-11-08T14:16:32.544Z,100152.28
2022-11-08T14:19:19.884Z,100121.66
2022-11-08T14:21:50.652Z,100148.19
2022-11-08T14:24:18.973Z,100150.53
2022-11-08T14:26:46.777Z,100150.31
2022-11-08T14:29:20.013Z,100149.84
2022-11-08T14:31:46.905Z,100153.66
2022-11-08T14:34:27.168Z,100150.31
2022-11-08T14:36:56.120Z,100152.41
2022-11-08T14:39:33.475Z,100140.31
2022-11-08T14:42:01.236Z,100140.19
2022-11-08T14:44:28.476Z,100147.97
2022-11-08T14:46:54.927Z,100137.47
2022-11-08T14:49:35.793Z,100125.38
2022-11-08T14:52:25.970Z,100128.09
2022-11-08T14:55:04.225Z,100129.75
2022-11-08T14:57:33.546Z,100131.03
2022-11-08T15:00:01.694Z,100148.44
2022-11-08T15:02:28.010Z,100147.63
2022-11-08T15:04:54.412Z,100132.47
2022-11-08T15:07:22.424Z,100147.16
2022-11-08T15:09:49.536Z,100160.66
2022-11-08T15:12:20.518Z,100157.31
2022-11-08T15:14:50.731Z,100143.09
2022-11-08T15:17:36.599Z,100142.88
2022-11-08T15:20:05.136Z,100143.69
2022-11-08T15:22:32.571Z,100137.88
2022-11-08T15:25:13.986Z,100141.44
2022-11-08T15:27:54.508Z,100142.72
2022-11-08T15:30:41.105Z,100138.56
2022-11-08T15:33:20.624Z,100140.44
2022-11-08T15:35:47.161Z,100142.38
2022-11-08T15:38:19.631Z,100133.13
2022-11-08T15:40:50.315Z,100126.59
2022-11-08T15:43:31.683Z,100126.03
2022-11-08T15:45:59.382Z,100126.47
2022-11-08T15:48:28.616Z,100132.78
2022-11-08T15:50:56.707Z,100125.41
2022-11-08T15:53:23.609Z,100131.94
2022-11-08T15:55:55.935Z,100139.03
2022-11-08T15:58:30.343Z,100141.19
2022-11-08T16:00:57.408Z,100135.34
2022-11-08T16:03:23.861Z,100146.47
2022-11-08T16:05:50.304Z,100145.41
2022-11-08T16:08:20.258Z,100143.97
2022-11-08T16:10:48.783Z,100147.53
2022-11-08T16:13:18.192Z,100134.72
2022-11-08T16:15:45.555Z,100135.56
2022-11-08T16:18:12.115Z,100134.97
2022-11-08T16:20:38.400Z,100134.38
2022-11-08T16:23:06.064Z,100124.06
2022-11-08T16:25:37.017Z,100118.50
2022-11-08T16:28:08.497Z,100123.94
2022-11-08T16:30:46.722Z,100125.00
2022-11-08T16:33:18.629Z,100128.31
2022-11-08T16:35:44.863Z,100117.41
2022-11-08T16:38:11.188Z,100122.41
2022-11-08T16:40:37.444Z,100104.88
2022-11-08T16:43:03.755Z,100126.22
2022-11-08T16:46:03.026Z,100122.88
2022-11-08T16:48:22.697Z,100121.56
2022-11-08T16:50:49.232Z,100120.75
2022-11-08T16:53:17.084Z,100116.63
2022-11-08T16:55:43.391Z,100118.84
2022-11-08T16:58:09.783Z,100120.75
2022-11-08T17:00:37.783Z,100122.41
2022-11-08T17:03:04.598Z,100121.34
2022-11-08T17:05:31.229Z,100125.28
2022-11-08T17:07:57.685Z,100131.53
2022-11-08T17:10:25.633Z,100130.97
2022-11-08T17:12:52.312Z,100132.63
2022-11-08T17:15:20.340Z,100128.69
2022-11-08T17:17:46.876Z,100117.41
2022-11-08T17:20:14.460Z,100120.03
2022-11-08T17:22:41.727Z,100116.47
2022-11-08T17:25:08.481Z,100131.97
2022-11-08T17:27:34.795Z,100138.47
2022-11-08T17:30:01.927Z,100143.47
2022-11-08T17:32:28.764Z,100143.06
2022-11-08T17:34:55.124Z,100142.84
2022-11-08T17:37:21.460Z,100141.81
2022-11-08T17:39:47.823Z,100143.47
2022-11-08T17:42:14.115Z,100132.13
2022-11-08T17:44:40.402Z,100134.84
2022-11-08T17:47:06.656Z,100137.56
2022-11-08T17:49:33.007Z,100132.94
2022-11-08T17:51:59.380Z,100138.41
2022-11-08T17:54:25.633Z,100133.75
2022-11-08T17:56:52.013Z,100135.28
2022-11-08T17:59:18.936Z,100143.91
2022-11-08T18:01:45.368Z,100133.47
2022-11-08T18:04:11.684Z,100140.75
2022-11-08T18:06:40.977Z,100134.44
2022-11-08T18:09:08.331Z,100131.72
2022-11-08T18:11:34.915Z,100134.69
2022-11-08T18:14:01.708Z,100134.44
2022-11-08T18:16:29.565Z,100135.53
2022-11-08T18:18:56.795Z,100136.38
2022-11-08T18:21:23.099Z,100127.13
2022-11-08T18:23:49.933Z,100127.13
2022-11-08T18:26:17.311Z,100116.63
2022-11-08T18:28:44.338Z,100117.56
2022-11-08T18:31:15.081Z,100115.44
2022-11-08T18:33:41.352Z,100122.09
2022-11-08T18:36:12.298Z,100128.97
2022-11-08T18:38:44.444Z,100119.50
2022-11-08T18:41:11.788Z,100113.81
2022-11-08T18:43:38.300Z,100113.81
2022-11-08T18:46:05.607Z,100110.41
2022-11-08T18:48:35.116Z,100114.78
2022-11-08T18:51:01.961Z,100116.31
2022-11-08T18:53:28.234Z,100115.00
2022-11-08T18:55:54.556Z,100112.91
2022-11-08T18:58:21.078Z,100112.97
2022-11-08T19:00:47.820Z,100110.25
2022-11-08T19:03:14.244Z,100115.13
2022-11-08T19:05:43.313Z,100118.53
2022-11-08T19:08:09.787Z,100116.50
2022-11-08T19:10:36.171Z,100121.09
2022-11-08T19:13:03.288Z,100122.06
2022-11-08T19:15:30.048Z,100127.13
2022-11-08T19:17:57.537Z,100134.69
2022-11-08T19:20:24.038Z,100132.44
2022-11-08T19:22:52.720Z,100138.94
2022-11-08T19:25:19.058Z,100139.38
2022-11-08T19:27:45.368Z,100138.56
2022-11-08T19:30:12.109Z,100123.28
2022-11-08T19:32:38.371Z,100128.94
2022-11-08T19:35:04.927Z,100096.56
2022-11-08T19:37:31.256Z,100120.19
2022-11-08T19:39:59.255Z,100128.94
2022-11-08T19:42:25.532Z,100132.28
2022-11-08T19:44:51.908Z,100129.94
2022-11-08T19:47:18.178Z,100115.84
2022-11-08T19:49:44.492Z,100133.03
2022-11-08T19:52:11.646Z,100135.28
2022-11-08T19:54:37.932Z,100141.44
2022-11-08T19:57:05.859Z,100146.53
2022-11-08T19:59:32.772Z,100144.25
2022-11-08T20:01:59.889Z,100148.84
2022-11-08T20:04:26.437Z,100146.59
2022-11-08T20:06:52.763Z,100141.97
2022-11-08T20:09:19.111Z,100133.59
2022-11-08T20:11:45.412Z,100128.38
2022-11-08T20:14:12.727Z,100135.47
2022-11-08T20:16:41.750Z,100137.84
2022-11-08T20:19:09.438Z,100138.66
2022-11-08T20:21:38.622Z,100131.09
2022-11-08T20:24:05.009Z,100132.97
2022-11-08T20:26:31.462Z,100143.63
2022-11-08T20:28:57.775Z,100134.63
2022-11-08T20:31:24.596Z,100129.44
2022-11-08T20:33:53.167Z,100116.88
2022-11-08T20:36:20.653Z,100122.06
2022-11-08T20:38:47.343Z,100124.34
2022-11-08T20:41:14.411Z,100119.75
2022-11-08T20:43:41.716Z,100124.13
2022-11-08T20:46:09.624Z,100130.19
2022-11-08T20:48:35.954Z,100132.91
2022-11-08T20:51:03.501Z,100137.28
2022-11-08T20:53:34.082Z,100137.41
2022-11-08T20:56:04.356Z,100147.72
2022-11-08T20:58:31.480Z,100141.13
2022-11-08T21:00:58.973Z,100142.16
2022-11-08T21:03:25.951Z,100145.56
2022-11-08T21:05:52.296Z,100148.28
2022-11-08T21:11:06.292Z,100148.47
2022-11-08T21:13:34.583Z,100146.34
2022-11-08T21:16:26.776Z,100146.81
2022-11-08T21:18:47.554Z,100147.25
2022-11-08T21:21:15.312Z,100148.78
2022-11-08T21:23:43.341Z,100143.34
2022-11-08T21:26:10.249Z,100155.66
2022-11-08T21:28:36.990Z,100158.16
2022-11-08T21:31:04.002Z,100154.81
2022-11-08T21:33:30.741Z,100144.75
2022-11-08T21:35:57.797Z,100146.88
2022-11-08T21:38:24.478Z,100156.97
2022-11-08T21:40:51.972Z,100156.97
2022-11-08T21:43:18.935Z,100154.22
2022-11-08T21:45:45.483Z,100147.09
2022-11-08T21:48:15.265Z,100152.53
2022-11-08T21:50:42.051Z,100153.16
2022-11-08T21:53:08.482Z,100143.56
2022-11-08T21:55:35.092Z,100152.78
2022-11-08T21:58:01.838Z,100151.75
2022-11-08T22:00:28.692Z,100144.38
2022-11-08T22:02:56.535Z,100157.41
2022-11-08T22:05:23.263Z,100157.41
2022-11-08T22:07:49.541Z,100154.91
2022-11-08T22:10:15.847Z,100150.28
2022-11-08T22:12:42.177Z,100159.06
2022-11-08T22:15:09.041Z,100147.78
2022-11-08T22:17:35.543Z,100154.91
2022-11-08T22:20:01.840Z,100163.31
2022-11-08T22:22:28.162Z,100169.78
2022-11-08T22:24:55.540Z,100169.22
2022-11-08T22:27:22.024Z,100160.19
2022-11-08T22:29:48.314Z,100159.41
2022-11-08T22:32:14.551Z,100168.81
2022-11-08T22:34:40.832Z,100168.00
2022-11-08T22:37:07.118Z,100159.63
2022-11-08T22:39:33.409Z,100158.78
2022-11-08T22:41:59.685Z,100159.63
2022-11-08T22:44:26.029Z,100162.56
2022-11-08T22:46:52.285Z,100168.00
2022-11-08T22:49:18.641Z,100167.41
2022-11-08T22:51:45.439Z,100159.22
2022-11-08T22:54:11.720Z,100174.72
2022-11-08T22:56:38.260Z,100183.13
2022-11-08T22:59:04.957Z,100173.28
2022-11-08T23:01:31.504Z,100174.38
2022-11-08T23:03:57.933Z,100171.03
2022-11-08T23:06:24.183Z,100163.94
2022-11-08T23:08:50.590Z,100152.19
2022-11-08T23:11:35.809Z,100162.28
2022-11-08T23:14:20.510Z,100173.16
2022-11-08T23:16:46.884Z,100181.09
2022-11-08T23:19:35.851Z,100182.97
2022-11-08T23:22:21.205Z,100182.97
2022-11-08T23:24:47.489Z,100172.94
2022-11-08T23:27:34.124Z,100177.31
2022-11-08T23:30:19.782Z,100173.53
2022-11-08T23:32:47.178Z,100170.56
2022-11-08T23:35:13.661Z,100165.34
2022-11-08T23:37:39.958Z,100157.19
2022-11-08T23:40:26.001Z,100123.13
2022-11-08T23:43:43.468Z,100171.03
2022-11-08T23:46:11.124Z,100163.09
2022-11-08T23:48:38.682Z,100161.44
2022-11-08T23:51:06.815Z,100167.72
2022-11-08T23:53:33.739Z,100150.53
2022-11-08T23:56:00.157Z,100144.25
2022-11-08T23:58:26.578Z,100150.53
